Address 0x60fa54d5838e69c5b5170dbf5125d309017c3579

 
Txn Hash
Block
From
To
Value [Txn Fee]
0xd660dfd7fc8ea7540efdce8887965d435fc1b503dfb9a823b0a637780e42208967067312021-04-19 16:25:0923 hrs 36 mins ago0x60fa54d5838e69c5b5170dbf5125d309017c3579OUT 0x10e73d296fb247dc6c5f134b7dc2aa3583a9e3b00 BNB0.00022172
0x5bc98544f85bd957ee04335d16740e4c184c2f458aeaefc603feba5e9e96ac5065357172021-04-13 17:33:526 days 22 hrs ago0x60fa54d5838e69c5b5170dbf5125d309017c3579OUT 0x19e506bbf1d8dbd08e963229434634664a5771110.001 BNB0.000387335
0xdede0c90537c175137402982b45e98d128e52141bf9b2d0c201c0044c12957b565201712021-04-13 4:36:037 days 11 hrs ago0x9c8d78c16ac40264b6d2cecab9712c25d03ace0e IN 0x60fa54d5838e69c5b5170dbf5125d309017c35790.0017 BNB0.000105
0x0c947860fa73bcc3240452d93a83b2250bf4e825168766c63a768202005b074865199242021-04-13 4:23:427 days 11 hrs ago0x60fa54d5838e69c5b5170dbf5125d309017c3579OUT0x9c8d78c16ac40264b6d2cecab9712c25d03ace0e0.0015 BNB0.000105
0x95c29eaa95d099b44ed80a91573166fd72e8bb74b881f8d9b759eb71738b2b7b64745192021-04-11 14:30:239 days 1 hr ago0x60fa54d5838e69c5b5170dbf5125d309017c3579OUT Binance: BUSD Stablecoin0 BNB0.000105695
0x7cf487674bf5fbb2fa152ac1801458a2d9e58ad52fef939c5d2834fb2ae1d55a64744822021-04-11 14:28:329 days 1 hr ago0x60fa54d5838e69c5b5170dbf5125d309017c3579OUT PancakeSwap: Router0 BNB0.00055615
0x4531aad46b18dc4e32e890feaa69663c3414061195598ee36bb0f9730751553264744672021-04-11 14:27:479 days 1 hr ago0x60fa54d5838e69c5b5170dbf5125d309017c3579OUT PancakeSwap: Router0 BNB0.00065567
0x542e9def2aabddc173538adea31596201a4503484ad3b2750e90bdfa1152620364744482021-04-11 14:26:509 days 1 hr ago0x60fa54d5838e69c5b5170dbf5125d309017c3579OUT PancakeSwap: CAKE Token0 BNB0.00022215
0xffa07d1156b52e4bc1260df7eaed20655c6cc95560d7bf6e274e98cf03e7199164744282021-04-11 14:25:509 days 1 hr ago0x60fa54d5838e69c5b5170dbf5125d309017c3579OUT 0x9bbdc92474a7e7321b78dcda5ef35f49814387600 BNB0.00041522
0x967f644cbbbf11160324e452b16f9d17d0c06348bda1176fa5a933c387a5852064407922021-04-10 10:20:1910 days 5 hrs ago0x60fa54d5838e69c5b5170dbf5125d309017c3579OUT 0x95e8026364a29cda88049b23c65ac411cea4715a0 BNB0.00071275
0x94e21acc854061753d9f59694dbe9c762e43a9fb868da59749abb3c7d7b49f7164407802021-04-10 10:19:4310 days 5 hrs ago0x60fa54d5838e69c5b5170dbf5125d309017c3579OUT 0xcde540d7eafe93ac5fe6233bee57e1270d3e330f0 BNB0.00048596
0x44743a979a977fead241601251343fb54a8041ea19aa8b9398175ce200e4960b64407282021-04-10 10:17:0710 days 5 hrs ago0x60fa54d5838e69c5b5170dbf5125d309017c3579OUT PancakeSwap: Router0 BNB0.00159607
0x1a1cbda3c6971d76b798ce99c6a9aae27a4b2ecf397662ea267a7e9e50283f5864398842021-04-10 9:34:5510 days 6 hrs ago0x60fa54d5838e69c5b5170dbf5125d309017c3579OUT 0x055e2e39fd34e3f270b609eb42dbf05abfbfc85f0 BNB0.00022263
0xa41d267da864d763e5b3dd0b2cdab8443acf9972f7eced67e5b880981829d05b64389772021-04-10 8:49:3410 days 7 hrs ago0x60fa54d5838e69c5b5170dbf5125d309017c3579OUT0x9c8d78c16ac40264b6d2cecab9712c25d03ace0e0.002 BNB0.000105
0x3e986606989208f568ad17489137536ddb0b20098275d344ca2effa4b6b1484f64389232021-04-10 8:46:5210 days 7 hrs ago0x60fa54d5838e69c5b5170dbf5125d309017c3579OUT PancakeSwap: Router0.008 BNB0.001268795
0xebb7a82e05aeeec3a88e85bd11ec33865a5917631eaba20368b35fb54e4699d064388692021-04-10 8:44:1010 days 7 hrs ago0x60fa54d5838e69c5b5170dbf5125d309017c3579OUT PancakeSwap: Router0 BNB0.00051123
0xaed5ffa82bb2591f92594a86732a518c6410cb34d8891d59013213b9658a7e6664388262021-04-10 8:42:0110 days 7 hrs ago0x9c8d78c16ac40264b6d2cecab9712c25d03ace0e IN 0x60fa54d5838e69c5b5170dbf5125d309017c35790.002 BNB0.000105
0x9c2268c1875f2700d11617608e161fe9210715484cf46bb2c93a74e4ca89ab9764386502021-04-10 8:33:1310 days 7 hrs ago0x60fa54d5838e69c5b5170dbf5125d309017c3579OUT PancakeSwap: Router0 BNB0.000586045
0x979d08d210a6a1ba042f00d7167c1b9bc9f779f8c8b708fed571a7809f3f177864379732021-04-10 7:59:2210 days 8 hrs ago0x60fa54d5838e69c5b5170dbf5125d309017c3579OUT 0x95e8026364a29cda88049b23c65ac411cea4715a0 BNB0.00063666
0x8e7d3e2e5ea625c0b7e436ba70574e48223cae7199611661bf0ed2021d61f7ae64379662021-04-10 7:59:0110 days 8 hrs ago0x60fa54d5838e69c5b5170dbf5125d309017c3579OUT BakerySwap: BAKE Token0 BNB0.00022191
0x84bf8e1e6011c06a8d50b3b4df72c8c8ef833539e9359354e12782337be8b51064379552021-04-10 7:58:2810 days 8 hrs ago0x60fa54d5838e69c5b5170dbf5125d309017c3579OUT 0xcde540d7eafe93ac5fe6233bee57e1270d3e330f0 BNB0.00054604
0x6b95b6d98b755d83517917858f82840e9baa295b42d683e7df6bf06157b7fbd964379472021-04-10 7:58:0410 days 8 hrs ago0x60fa54d5838e69c5b5170dbf5125d309017c3579OUT Binance: BUSD Stablecoin0 BNB0.00022203
0x093746b85a49264763774402fed12a9d8f7ad3cf1902040f697e0fcf3dbed81164378992021-04-10 7:55:4010 days 8 hrs ago0x60fa54d5838e69c5b5170dbf5125d309017c3579OUT PancakeSwap: Router0 BNB0.001247395
0xd285b7bb3033132184cb8131dfa63e159b44ffa91775c2a606929d31e4e68b2d64378802021-04-10 7:54:4310 days 8 hrs ago0x60fa54d5838e69c5b5170dbf5125d309017c3579OUT 0x4f45f6025be6c65573daa0b9965a75e837848da00 BNB0.00022274
0x99331863ebc91dad79002be7f1088f0174147d7869813a2d6ae1cd6656b5c24064109402021-04-09 9:24:1711 days 6 hrs ago0x60fa54d5838e69c5b5170dbf5125d309017c3579OUT PancakeSwap: Router0 BNB0.00057241
[ Download CSV Export 
Latest 11 internal transactions
Parent Txn Hash Block From To Value
0xebb7a82e05aeeec3a88e85bd11ec33865a5917631eaba20368b35fb54e4699d064388692021-04-10 8:44:1010 days 7 hrs ago PancakeSwap: Router0x60fa54d5838e69c5b5170dbf5125d309017c35790.016290840088283522 BNB
0x99331863ebc91dad79002be7f1088f0174147d7869813a2d6ae1cd6656b5c24064109402021-04-09 9:24:1711 days 6 hrs ago PancakeSwap: Router0x60fa54d5838e69c5b5170dbf5125d309017c35790.000919235311369653 BNB
0x1bfbae1a586ae52299b9e2d2a1758f048822225e7cfad34627f47617595f642463875972021-04-08 13:09:3912 days 2 hrs ago PancakeSwap: Router0x60fa54d5838e69c5b5170dbf5125d309017c35790.03081025373070888 BNB
0xd6ed6cbc3f9b18c4fabd939f3b4f9e0a509a2a3aca8c15c99ad04a28ca62621c63846572021-04-08 10:39:1712 days 5 hrs ago PancakeSwap: Router0x60fa54d5838e69c5b5170dbf5125d309017c35790.004007596922980505 BNB
0x6f314219ac37c9576da193daa7b3860890a01733a497db50b91a230ab9ef732363846152021-04-08 10:37:1112 days 5 hrs ago 0x0f1700cec9781740a832b370467cbbbcdaf75ad10x60fa54d5838e69c5b5170dbf5125d309017c35790.004115393277069804 BNB
0xde896cbd591297ed6f687004773b4a4534f0c628cc14a5f7f025c3ae9e78291061265102021-03-30 8:17:3721 days 7 hrs ago PancakeSwap: Router0x60fa54d5838e69c5b5170dbf5125d309017c35790.000053942991391052 BNB
0x308191f8336a170ca0583d1c4865c748d127943582d788594fc6861f57b64d8961265012021-03-30 8:17:1021 days 7 hrs ago PancakeSwap: Router0x60fa54d5838e69c5b5170dbf5125d309017c35790.066720107009173519 BNB
0x954509f4c2c5f3a32554603a4ef9da6c805d6146c3b312ff22ec8ee1a348201961262012021-03-30 8:02:1021 days 7 hrs ago PancakeSwap: Router0x60fa54d5838e69c5b5170dbf5125d309017c35790.042815803741600877 BNB
0xcf28fe23293b4089666424cae151f136aa643e933e078eacabb7e8371be9d70e61084782021-03-29 17:15:0321 days 22 hrs ago PancakeSwap: Router0x60fa54d5838e69c5b5170dbf5125d309017c35790.005060253912705435 BNB
0x2f066d423ea32f2b90a2c58f8dd24059f9881bfab8ef81418cce9aad3535502f61084332021-03-29 17:12:4821 days 22 hrs ago PancakeSwap: Router0x60fa54d5838e69c5b5170dbf5125d309017c35790.000822093721556462 BNB
0x38aa1546c1fa5882567288d59e5ed847996cbbd8d235bed838f41499d54384fc61083222021-03-29 17:07:1521 days 22 hrs ago Binance: WBNB Token0x60fa54d5838e69c5b5170dbf5125d309017c35790.002432868895819839 BNB
[ Download CSV Export 
Loading

Contract Name:
0 BNB

Compiler Version
0

Optimization Enabled:
0 BNB

Other Settings:
-NA-
Block Transaction Gas Used Reward
Age Block Fee Address BC Fee Address Voting Power Jailed Incoming
Block Uncle Number Difficulty Gas Used Reward
Loading
Loading
Make sure to use the "Vote Down" button for any spammy posts, and the "Vote Up" for interesting conversations.